Terminal Aerodrome Forecast
Issued by NWS

Home | Current Version | Previous Version | Graphics & Text | Print | Product List | Glossary On
Versions: 1 2 3 4 5 6 7 8 9 10 11 12 13
734
FTUS43 KIWX 261727
TAFSBN
TAF
KSBN 261727Z 2618/2718 29015G22KT P6SM VCSH SCT060
     FM270000 30007KT P6SM SCT070=

USA.gov is the U.S. government's official web portal to all federal, state and local government web resources and services.